Time;durP1;ratioP1;P1;durP2;ratioP2;P2;SDS_P1;SDS_P2;PMS_P1;PMS_P2;Temp;Humidity;BMP_temperature;BMP_pressure;BME280_temperature;BME280_humidity;BME280_pressure;Samples;Min_cycle;Max_cycle;Signal;HPM_P1;HPM_P2
2024/01/14 00:01:23;;;;;;;40.53;19.85;;;;;;;2.15;100.00;101373.47;5053889;28;20045;-48
2024/01/14 00:03:52;;;;;;;40.65;17.80;;;;;;;2.15;100.00;101370.84;5053782;28;20045;-50
2024/01/14 00:06:21;;;;;;;40.35;18.02;;;;;;;2.13;100.00;101371.81;5053831;28;20044;-50
2024/01/14 00:08:49;;;;;;;40.45;18.60;;;;;;;2.11;100.00;101370.97;5053118;28;20045;-50
2024/01/14 00:11:17;;;;;;;40.45;17.55;;;;;;;2.13;100.00;101367.47;5053841;28;20128;-48
2024/01/14 00:13:46;;;;;;;38.60;17.98;;;;;;;2.11;100.00;101363.19;5053888;28;20049;-51
2024/01/14 00:16:14;;;;;;;35.80;17.05;;;;;;;2.11;100.00;101356.25;5053807;28;20500;-49
2024/01/14 00:18:42;;;;;;;36.28;16.75;;;;;;;2.07;100.00;101354.59;5051405;28;20118;-49
2024/01/14 00:21:12;;;;;;;36.53;17.05;;;;;;;2.06;100.00;101352.91;5050196;28;20152;-50
2024/01/14 00:23:40;;;;;;;36.97;17.67;;;;;;;2.11;100.00;101355.41;5050419;28;20056;-50
2024/01/14 00:26:08;;;;;;;38.20;17.27;;;;;;;2.08;100.00;101348.53;5050204;28;20132;-50
2024/01/14 00:28:37;;;;;;;37.80;18.33;;;;;;;2.08;100.00;101356.31;5049912;28;20151;-50
2024/01/14 00:31:05;;;;;;;38.50;18.73;;;;;;;2.08;100.00;101345.09;5052645;28;20056;-51
2024/01/14 00:33:33;;;;;;;41.25;18.42;;;;;;;2.05;100.00;101343.41;5053328;28;20037;-49
2024/01/14 00:36:03;;;;;;;37.45;17.83;;;;;;;2.07;100.00;101345.97;5052995;28;20763;-51
2024/01/14 00:38:32;;;;;;;35.53;17.02;;;;;;;2.11;100.00;101345.03;5050418;28;20123;-50
2024/01/14 00:41:00;;;;;;;33.72;16.20;;;;;;;2.07;100.00;101338.19;5050173;28;20056;-53
2024/01/14 00:43:29;;;;;;;38.50;18.48;;;;;;;2.06;100.00;101328.69;5049615;28;20064;-53
2024/01/14 00:45:57;;;;;;;40.63;17.45;;;;;;;1.99;100.00;101321.06;5052448;28;20056;-52
2024/01/14 00:48:28;;;;;;;36.63;18.73;;;;;;;1.98;100.00;101321.09;5049297;28;20129;-50
2024/01/14 00:50:56;;;;;;;38.67;17.98;;;;;;;1.99;100.00;101318.47;5050678;28;20037;-50
2024/01/14 00:53:25;;;;;;;37.83;17.50;;;;;;;2.03;100.00;101312.31;5052970;28;20045;-49
2024/01/14 00:55:54;;;;;;;36.80;17.85;;;;;;;2.02;100.00;101320.13;5052711;28;20052;-52
2024/01/14 00:58:23;;;;;;;37.97;18.83;;;;;;;2.03;100.00;101308.84;5051400;28;20080;-53
2024/01/14 01:00:51;;;;;;;37.35;17.00;;;;;;;2.02;100.00;101310.59;5053174;28;20044;-52
2024/01/14 01:03:19;;;;;;;43.97;19.33;;;;;;;2.03;100.00;101311.44;5051708;28;20056;-50
2024/01/14 01:05:47;;;;;;;41.33;17.83;;;;;;;2.01;100.00;101313.25;5049840;28;20041;-50
2024/01/14 01:08:16;;;;;;;37.70;17.58;;;;;;;2.00;100.00;101316.72;5049677;28;20412;-52
2024/01/14 01:10:44;;;;;;;35.47;16.23;;;;;;;1.95;100.00;101313.34;5049697;28;20047;-51
2024/01/14 01:13:14;;;;;;;38.15;18.45;;;;;;;1.97;100.00;101304.66;5051474;28;20045;-49
2024/01/14 01:15:42;;;;;;;39.85;18.52;;;;;;;2.00;100.00;101303.75;5068712;28;20124;-51
2024/01/14 01:18:11;;;;;;;36.35;18.08;;;;;;;2.02;100.00;101291.59;5072399;28;20059;-49
2024/01/14 01:20:39;;;;;;;45.90;20.65;;;;;;;2.02;100.00;101284.66;5070033;28;20049;-51
2024/01/14 01:23:08;;;;;;;40.53;18.95;;;;;;;2.05;100.00;101282.91;5070096;28;20591;-49
2024/01/14 01:25:36;;;;;;;47.20;21.05;;;;;;;2.00;100.00;101285.56;5068251;28;20048;-50
2024/01/14 01:28:05;;;;;;;45.45;21.30;;;;;;;1.99;100.00;101279.53;5067452;28;20062;-49
2024/01/14 01:30:35;;;;;;;46.17;21.88;;;;;;;1.95;100.00;101279.63;5068720;28;20040;-51
2024/01/14 01:33:04;;;;;;;50.13;21.85;;;;;;;1.92;100.00;101277.94;5068326;28;20044;-51
2024/01/14 01:35:33;;;;;;;46.88;20.55;;;;;;;1.96;100.00;101281.34;5070362;28;20044;-52
2024/01/14 01:38:01;;;;;;;48.47;21.65;;;;;;;1.96;100.00;101276.16;5069607;28;20076;-52
2024/01/14 01:40:29;;;;;;;43.58;19.48;;;;;;;1.99;100.00;101289.06;5068886;28;20467;-51
2024/01/14 01:42:57;;;;;;;50.17;22.08;;;;;;;1.98;100.00;101284.78;5068352;28;20054;-54
2024/01/14 01:45:25;;;;;;;45.05;21.30;;;;;;;1.95;100.00;101287.41;5069628;28;20060;-49
2024/01/14 01:47:55;;;;;;;43.53;19.85;;;;;;;1.96;100.00;101283.94;5071539;28;20040;-49
2024/01/14 01:50:23;;;;;;;46.45;20.33;;;;;;;1.95;100.00;101271.84;5068370;28;20057;-49
2024/01/14 01:52:51;;;;;;;48.28;21.27;;;;;;;2.00;100.00;101275.19;5067545;28;20056;-52
2024/01/14 01:55:20;;;;;;;45.42;22.23;;;;;;;2.02;100.00;101273.44;5069130;28;20068;-50
2024/01/14 01:57:48;;;;;;;46.60;22.05;;;;;;;1.97;100.00;101270.94;5071833;28;20053;-49
2024/01/14 02:00:17;;;;;;;47.85;22.98;;;;;;;1.97;100.00;101260.56;5070360;28;20051;-53
2024/01/14 02:02:49;;;;;;;49.47;22.73;;;;;;;1.96;100.00;101264.03;5057359;28;20401;-49
2024/01/14 02:05:21;;;;;;;47.85;22.52;;;;;;;1.93;100.00;101268.44;5067605;28;20476;-53
2024/01/14 02:07:50;;;;;;;49.55;22.23;;;;;;;1.95;100.00;101253.69;5067820;28;20048;-51
2024/01/14 02:10:18;;;;;;;46.97;22.38;;;;;;;1.96;100.00;101252.81;5068450;28;20063;-51
2024/01/14 02:12:46;;;;;;;46.35;21.13;;;;;;;1.93;100.00;101255.47;5068303;28;20053;-51
2024/01/14 02:15:15;;;;;;;43.05;21.13;;;;;;;1.94;100.00;101265.81;5067563;28;20064;-50
2024/01/14 02:17:43;;;;;;;50.65;23.33;;;;;;;1.91;100.00;101259.84;5070651;28;20049;-50
2024/01/14 02:20:14;;;;;;;53.38;21.95;;;;;;;1.92;100.00;101253.75;5071695;28;20044;-50
2024/01/14 02:22:49;;;;;;;47.65;22.33;;;;;;;1.91;100.00;101260.69;5070778;28;20052;-48
2024/01/14 02:25:19;;;;;;;51.42;24.08;;;;;;;1.91;100.00;101263.31;5068652;28;20040;-50
2024/01/14 02:27:47;;;;;;;49.08;24.13;;;;;;;1.89;100.00;101251.25;5068704;28;20037;-50
2024/01/14 02:30:16;;;;;;;55.30;25.17;;;;;;;1.89;100.00;101246.91;5068060;28;20045;-49
2024/01/14 02:32:50;;;;;;;52.50;24.27;;;;;;;1.95;100.00;101245.91;5071963;28;20110;-51
2024/01/14 02:35:19;;;;;;;55.78;24.75;;;;;;;1.90;100.00;101235.66;5072198;28;20457;-49
2024/01/14 02:37:47;;;;;;;57.42;25.40;;;;;;;1.94;100.00;101236.44;5072658;28;20491;-50
2024/01/14 02:40:16;;;;;;;54.47;24.80;;;;;;;1.96;100.00;101240.69;5073909;28;20123;-50
2024/01/14 02:42:45;;;;;;;52.17;25.80;;;;;;;1.97;100.00;101244.16;5073747;28;20054;-50
2024/01/14 02:45:14;;;;;;;57.05;26.02;;;;;;;1.95;100.00;101231.22;5074912;28;20467;-52
2024/01/14 02:47:42;;;;;;;53.80;25.15;;;;;;;1.90;100.00;101235.66;5075305;28;20060;-53
2024/01/14 02:50:10;;;;;;;60.90;28.80;;;;;;;1.83;100.00;101227.16;5073853;28;20048;-50
2024/01/14 02:52:38;;;;;;;52.75;26.92;;;;;;;1.88;100.00;101221.00;5072203;28;20426;-52
2024/01/14 02:55:07;;;;;;;50.47;22.92;;;;;;;1.86;100.00;101221.03;5072909;28;20049;-53
2024/01/14 02:57:35;;;;;;;52.70;26.27;;;;;;;1.85;100.00;101209.81;5074973;28;20094;-51
2024/01/14 03:00:07;;;;;;;57.47;25.88;;;;;;;1.86;100.00;101208.91;5071699;28;20044;-53
2024/01/14 03:02:36;;;;;;;55.83;26.08;;;;;;;1.87;100.00;101209.78;5070989;28;20459;-49
2024/01/14 03:05:04;;;;;;;51.90;24.35;;;;;;;1.86;100.00;101201.13;5071154;28;20098;-49
2024/01/14 03:07:33;;;;;;;51.83;25.10;;;;;;;1.89;100.00;101204.56;5071499;28;20052;-50
2024/01/14 03:10:02;;;;;;;52.80;24.75;;;;;;;1.86;100.00;101182.97;5074147;28;20538;-52
2024/01/14 03:12:33;;;;;;;52.15;24.77;;;;;;;1.82;100.00;101193.47;5073304;28;20059;-51
2024/01/14 03:15:01;;;;;;;55.15;26.83;;;;;;;1.80;100.00;101190.91;5073451;28;20048;-51
2024/01/14 03:17:30;;;;;;;55.25;25.70;;;;;;;1.81;100.00;101191.75;5070834;28;20047;-49
2024/01/14 03:19:59;;;;;;;49.10;25.27;;;;;;;1.81;100.00;101182.25;5071114;28;20071;-52
2024/01/14 03:22:27;;;;;;;54.20;26.25;;;;;;;1.81;100.00;101184.84;5070992;28;20451;-53
2024/01/14 03:24:55;;;;;;;54.97;24.92;;;;;;;1.84;100.00;101184.75;5071329;28;20044;-51
2024/01/14 03:27:23;;;;;;;56.50;25.17;;;;;;;1.83;100.00;101175.28;5071162;28;20053;-53
2024/01/14 03:29:55;;;;;;;50.00;26.45;;;;;;;1.85;100.00;101176.09;5071141;28;20102;-51
2024/01/14 03:32:23;;;;;;;51.03;24.05;;;;;;;1.85;100.00;101160.53;5072314;28;20063;-47
2024/01/14 03:34:53;;;;;;;55.47;27.58;;;;;;;1.85;100.00;101160.53;5073848;28;20041;-46
2024/01/14 03:37:21;;;;;;;52.83;25.20;;;;;;;1.89;100.00;101160.47;5074411;28;20492;-48
2024/01/14 03:39:52;;;;;;;52.50;24.95;;;;;;;1.85;100.00;101157.94;5074503;28;20454;-47
2024/01/14 03:42:20;;;;;;;54.83;26.42;;;;;;;1.83;100.00;101159.72;5071939;28;20071;-47
2024/01/14 03:44:48;;;;;;;57.75;26.75;;;;;;;1.81;100.00;101158.03;5074030;28;20144;-47
2024/01/14 03:47:16;;;;;;;57.30;26.70;;;;;;;1.79;100.00;101150.28;5074087;28;20434;-45
2024/01/14 03:49:44;;;;;;;58.28;29.15;;;;;;;1.80;100.00;101153.72;5074115;28;20044;-45
2024/01/14 03:52:14;;;;;;;58.15;26.70;;;;;;;1.83;100.00;101156.28;5074291;28;20557;-45
2024/01/14 03:54:42;;;;;;;62.50;27.85;;;;;;;1.78;100.00;101158.13;5074226;28;20036;-48
2024/01/14 03:57:10;;;;;;;57.28;26.23;;;;;;;1.76;100.00;101152.09;5074158;28;20114;-48
2024/01/14 03:59:41;;;;;;;57.25;27.45;;;;;;;1.77;100.00;101151.22;5074051;28;20037;-47
2024/01/14 04:02:09;;;;;;;59.20;26.90;;;;;;;1.75;100.00;101156.44;5073541;28;20056;-47
2024/01/14 04:04:38;;;;;;;65.90;27.45;;;;;;;1.73;100.00;101152.19;5073887;28;20072;-47
2024/01/14 04:07:06;;;;;;;60.55;27.05;;;;;;;1.73;100.00;101142.63;5073778;28;20048;-47
2024/01/14 04:09:36;;;;;;;59.83;26.42;;;;;;;1.74;100.00;101135.72;5073735;28;20040;-46
2024/01/14 04:12:05;;;;;;;59.33;26.52;;;;;;;1.72;100.00;101150.47;5073748;28;20075;-47
2024/01/14 04:14:33;;;;;;;56.58;26.23;;;;;;;1.69;100.00;101130.63;5073611;28;20106;-47
2024/01/14 04:17:01;;;;;;;56.17;25.55;;;;;;;1.69;100.00;101133.22;5069512;28;20045;-46
2024/01/14 04:19:29;;;;;;;53.85;23.92;;;;;;;1.66;100.00;101126.41;5070984;28;20076;-46
2024/01/14 04:21:57;;;;;;;57.10;25.13;;;;;;;1.68;100.00;101123.78;5073614;28;20036;-46
2024/01/14 04:24:26;;;;;;;57.08;26.58;;;;;;;1.74;100.00;101130.53;5073349;28;20044;-46
2024/01/14 04:26:55;;;;;;;55.40;27.08;;;;;;;1.74;100.00;101122.75;5073089;28;20052;-46
2024/01/14 04:29:23;;;;;;;53.05;25.40;;;;;;;1.75;100.00;101125.31;5072889;28;20147;-48
2024/01/14 04:31:51;;;;;;;49.33;25.08;;;;;;;1.73;100.00;101121.91;5073370;28;20071;-45
2024/01/14 04:34:20;;;;;;;51.85;24.58;;;;;;;1.72;100.00;101117.63;5073381;28;20139;-47
2024/01/14 04:36:48;;;;;;;57.03;26.52;;;;;;;1.71;100.00;101117.66;5073171;28;20037;-45
2024/01/14 04:39:16;;;;;;;53.88;26.55;;;;;;;1.68;100.00;101113.41;5073188;28;20044;-48
2024/01/14 04:41:45;;;;;;;60.15;26.08;;;;;;;1.62;100.00;101114.41;5073397;28;20058;-51
2024/01/14 04:44:14;;;;;;;57.83;26.63;;;;;;;1.61;100.00;101109.22;5073062;28;20044;-46
2024/01/14 04:46:42;;;;;;;59.47;26.48;;;;;;;1.58;100.00;101111.91;5073169;28;20135;-50
2024/01/14 04:49:11;;;;;;;52.85;25.98;;;;;;;1.54;100.00;101108.53;5073005;28;20568;-51
2024/01/14 04:51:39;;;;;;;57.95;26.48;;;;;;;1.56;100.00;101103.31;5072888;28;20053;-47
2024/01/14 04:54:08;;;;;;;58.13;27.48;;;;;;;1.55;100.00;101104.19;5072360;28;20048;-48
2024/01/14 04:56:36;;;;;;;54.15;25.02;;;;;;;1.54;100.00;101102.50;5071318;28;20048;-46
2024/01/14 04:59:07;;;;;;;56.85;26.50;;;;;;;1.51;100.00;101101.69;5071521;28;20403;-46
2024/01/14 05:01:36;;;;;;;56.88;27.05;;;;;;;1.54;100.00;101105.06;5072373;28;20510;-48
2024/01/14 05:04:05;;;;;;;61.05;27.83;;;;;;;1.54;100.00;101102.50;5072386;28;20052;-46
2024/01/14 05:06:35;;;;;;;62.67;27.83;;;;;;;1.54;100.00;101085.22;5071100;28;20047;-46
2024/01/14 05:09:05;;;;;;;57.28;27.08;;;;;;;1.55;100.00;101088.66;5072408;28;20048;-48
2024/01/14 05:11:36;;;;;;;58.22;26.48;;;;;;;1.58;100.00;101088.56;5072454;28;20040;-48
2024/01/14 05:14:04;;;;;;;58.20;26.80;;;;;;;1.52;100.00;101087.81;5072380;28;20140;-47
2024/01/14 05:16:32;;;;;;;59.50;26.90;;;;;;;1.48;100.00;101086.19;5072556;28;20486;-47
2024/01/14 05:19:02;;;;;;;59.90;27.33;;;;;;;1.55;100.00;101080.88;5072570;28;20048;-52
2024/01/14 05:21:32;;;;;;;57.40;26.60;;;;;;;1.51;100.00;101085.25;5070994;28;20044;-46
2024/01/14 05:24:00;;;;;;;62.35;26.92;;;;;;;1.49;100.00;101082.72;5072164;28;20544;-46
2024/01/14 05:26:29;;;;;;;56.00;25.42;;;;;;;1.46;100.00;101089.69;5072093;28;20032;-49
2024/01/14 05:28:59;;;;;;;56.90;25.95;;;;;;;1.48;100.00;101087.94;5072260;28;20049;-47
2024/01/14 05:31:29;;;;;;;53.38;23.90;;;;;;;1.47;100.00;101089.69;5072267;28;20127;-46
2024/01/14 05:33:57;;;;;;;58.05;27.20;;;;;;;1.48;100.00;101080.16;5072150;28;20456;-45
2024/01/14 05:36:27;;;;;;;58.67;25.52;;;;;;;1.46;100.00;101075.00;5072105;28;20048;-46
2024/01/14 05:38:55;;;;;;;53.40;25.58;;;;;;;1.43;100.00;101075.09;5070775;28;20064;-47
2024/01/14 05:41:23;;;;;;;56.85;25.35;;;;;;;1.40;100.00;101064.78;5072011;28;20062;-47
2024/01/14 05:43:54;;;;;;;56.63;25.52;;;;;;;1.43;100.00;101074.22;5071732;28;20044;-47
2024/01/14 05:46:22;;;;;;;52.65;23.77;;;;;;;1.44;100.00;101063.81;5071755;28;20416;-48
2024/01/14 05:48:50;;;;;;;50.85;25.15;;;;;;;1.42;100.00;101068.19;5071829;28;20067;-46
2024/01/14 05:51:19;;;;;;;53.55;24.63;;;;;;;1.44;100.00;101063.81;5072131;28;20105;-45
2024/01/14 05:53:48;;;;;;;50.92;23.60;;;;;;;1.44;100.00;101061.22;5072027;28;20445;-49
2024/01/14 05:56:25;;;;;;;52.42;24.27;;;;;;;1.44;100.00;101061.22;5071897;28;20101;-46
2024/01/14 05:58:53;;;;;;;50.05;23.92;;;;;;;1.46;100.00;101067.22;5067963;28;20403;-46
2024/01/14 06:01:22;;;;;;;51.35;24.30;;;;;;;1.45;100.00;101065.53;5068492;28;20393;-46
2024/01/14 06:03:50;;;;;;;51.65;23.48;;;;;;;1.42;100.00;101057.81;5071711;28;20059;-49
2024/01/14 06:06:18;;;;;;;48.63;22.90;;;;;;;1.43;100.00;101061.25;5067276;28;20050;-49
2024/01/14 06:08:48;;;;;;;47.20;23.15;;;;;;;1.42;100.00;101052.66;5068290;28;20055;-45
2024/01/14 06:11:17;;;;;;;47.15;22.25;;;;;;;1.37;100.00;101049.31;5071541;28;20094;-49
2024/01/14 06:13:46;;;;;;;46.47;23.00;;;;;;;1.37;100.00;101046.72;5070716;28;20052;-50
2024/01/14 06:16:14;;;;;;;46.42;22.10;;;;;;;1.37;100.00;101038.94;5068051;28;20052;-47
2024/01/14 06:18:42;;;;;;;48.47;21.23;;;;;;;1.41;100.00;101037.13;5069823;28;20132;-47
2024/01/14 06:21:10;;;;;;;43.63;21.13;;;;;;;1.40;100.00;101041.44;5071485;28;20044;-46
2024/01/14 06:23:39;;;;;;;42.58;22.58;;;;;;;1.38;100.00;101043.22;5071479;28;20072;-49
2024/01/14 06:26:08;;;;;;;50.40;22.20;;;;;;;1.39;100.00;101032.00;5067635;28;20108;-46
2024/01/14 06:28:37;;;;;;;46.10;21.50;;;;;;;1.39;100.00;101029.41;5068872;28;20072;-47
2024/01/14 06:31:08;;;;;;;48.03;22.88;;;;;;;1.35;100.00;101030.34;5069483;28;20049;-45
2024/01/14 06:33:36;;;;;;;48.50;22.50;;;;;;;1.32;100.00;101033.00;5066403;28;20084;-45
2024/01/14 06:36:08;;;;;;;42.83;21.38;;;;;;;1.31;100.00;101020.91;5069008;28;20045;-47
2024/01/14 06:38:37;;;;;;;43.42;21.77;;;;;;;1.30;100.00;101024.44;5071379;28;20056;-46
2024/01/14 06:41:05;;;;;;;47.22;22.73;;;;;;;1.29;100.00;101023.56;5070214;28;20064;-46
2024/01/14 06:43:39;;;;;;;49.40;22.85;;;;;;;1.30;100.00;101014.06;5071403;28;20094;-45
2024/01/14 06:46:07;;;;;;;47.53;22.73;;;;;;;1.31;100.00;101015.75;5068981;28;20131;-46
2024/01/14 06:48:36;;;;;;;54.08;24.58;;;;;;;1.22;100.00;101005.63;5067393;28;20072;-46
2024/01/14 06:51:05;;;;;;;47.83;23.10;;;;;;;1.28;100.00;101006.31;5070900;28;20059;-46
2024/01/14 06:53:33;;;;;;;55.55;26.05;;;;;;;1.25;100.00;101002.94;5071355;28;20468;-48
2024/01/14 06:56:02;;;;;;;59.22;27.27;;;;;;;1.22;100.00;100990.06;5071395;28;20431;-46
2024/01/14 06:58:30;;;;;;;56.65;26.27;;;;;;;1.22;100.00;101003.03;5071164;28;20047;-47
2024/01/14 07:01:00;;;;;;;57.22;27.23;;;;;;;1.15;100.00;101004.91;5071237;28;20040;-49
2024/01/14 07:03:29;;;;;;;57.08;26.98;;;;;;;1.18;100.00;100999.66;5070589;28;20446;-46
2024/01/14 07:05:57;;;;;;;60.60;27.83;;;;;;;1.20;100.00;100997.00;5067928;28;20048;-45
2024/01/14 07:08:26;;;;;;;56.10;25.27;;;;;;;1.24;100.00;100996.06;5069144;28;20134;-46
2024/01/14 07:10:54;;;;;;;53.20;26.92;;;;;;;1.19;100.00;100985.81;5071180;28;20044;-47
2024/01/14 07:13:23;;;;;;;57.05;28.42;;;;;;;1.18;100.00;100986.69;5071149;28;20503;-46
2024/01/14 07:15:51;;;;;;;55.03;27.02;;;;;;;1.13;100.00;100988.53;5071160;28;20045;-46
2024/01/14 07:18:20;;;;;;;55.95;26.48;;;;;;;1.12;100.00;100987.69;5072703;28;20045;-45
2024/01/14 07:20:49;;;;;;;55.17;27.00;;;;;;;1.10;100.00;100989.44;5074667;28;20040;-46
2024/01/14 07:23:17;;;;;;;54.55;27.17;;;;;;;1.07;100.00;100989.53;5074664;28;20077;-45
2024/01/14 07:26:12;;;;;;;60.33;28.08;;;;;;;1.07;100.00;100994.72;5071796;28;20037;-45
2024/01/14 07:28:40;;;;;;;60.17;27.55;;;;;;;1.04;100.00;100997.38;5071168;28;20041;-46
2024/01/14 07:31:09;;;;;;;61.58;28.38;;;;;;;1.06;100.00;101010.28;5074084;28;20514;-49
2024/01/14 07:33:39;;;;;;;69.60;30.02;;;;;;;1.03;100.00;101000.84;5074161;28;20133;-48
2024/01/14 07:36:08;;;;;;;64.53;29.08;;;;;;;1.04;100.00;101001.69;5074160;28;20040;-48
2024/01/14 07:38:39;;;;;;;62.17;28.63;;;;;;;1.01;100.00;101006.06;5074185;28;20036;-48
2024/01/14 07:41:07;;;;;;;61.88;26.83;;;;;;;1.06;100.00;100998.19;5073768;28;20056;-50
2024/01/14 07:43:36;;;;;;;63.70;27.25;;;;;;;1.06;100.00;100990.41;5070597;28;20466;-49
2024/01/14 07:46:05;;;;;;;65.03;29.27;;;;;;;1.07;100.00;100989.53;5071259;28;20500;-46
2024/01/14 07:48:34;;;;;;;61.72;28.98;;;;;;;1.09;100.00;100994.66;5074432;28;20040;-49
2024/01/14 07:51:04;;;;;;;63.95;28.55;;;;;;;1.06;100.00;100997.34;5074237;28;20070;-51
2024/01/14 07:53:36;;;;;;;66.28;30.02;;;;;;;1.02;100.00;101004.31;5074241;28;20059;-51
2024/01/14 07:56:05;;;;;;;73.22;30.10;;;;;;;1.01;100.00;100997.47;5074109;28;20154;-49
2024/01/14 07:58:36;;;;;;;66.90;29.20;;;;;;;1.00;100.00;101001.78;5072240;28;20068;-51
2024/01/14 08:01:06;;;;;;;64.80;29.13;;;;;;;1.02;100.00;100999.13;5069972;28;20045;-50
2024/01/14 08:03:35;;;;;;;63.13;28.73;;;;;;;1.03;100.00;101003.44;5069796;28;20444;-50
2024/01/14 08:06:08;;;;;;;69.25;31.23;;;;;;;1.01;100.00;100997.47;5072134;28;20049;-50
2024/01/14 08:08:36;;;;;;;69.82;31.05;;;;;;;1.01;100.00;100992.28;5070557;28;20088;-50
2024/01/14 08:11:04;;;;;;;62.03;29.13;;;;;;;1.01;100.00;100992.28;5070134;28;20128;-51
2024/01/14 08:13:32;;;;;;;62.42;30.33;;;;;;;1.05;100.00;100999.09;5069707;28;20048;-50
2024/01/14 08:16:00;;;;;;;63.60;29.45;;;;;;;1.06;100.00;100997.34;5072505;28;20036;-50
2024/01/14 08:18:30;;;;;;;65.97;29.85;;;;;;;1.04;100.00;100993.91;5072558;28;20045;-50
2024/01/14 08:21:00;;;;;;;65.80;29.23;;;;;;;1.08;100.00;101003.31;5070384;28;20441;-50
2024/01/14 08:23:32;;;;;;;62.63;29.15;;;;;;;1.08;100.00;100992.97;5070521;28;20044;-49
2024/01/14 08:26:02;;;;;;;59.03;28.17;;;;;;;1.06;100.00;100992.16;5071892;28;20098;-49
2024/01/14 08:28:30;;;;;;;63.90;28.63;;;;;;;1.07;100.00;100991.28;5069275;28;20059;-49
2024/01/14 08:30:58;;;;;;;61.30;28.00;;;;;;;1.08;100.00;100993.84;5068872;28;20060;-50
2024/01/14 08:33:27;;;;;;;64.15;28.80;;;;;;;1.11;100.00;100985.13;5073194;28;20434;-51
2024/01/14 08:35:56;;;;;;;64.38;27.30;;;;;;;1.13;100.00;100981.63;5073179;28;20075;-49
2024/01/14 08:38:25;;;;;;;64.50;29.08;;;;;;;1.12;100.00;100985.09;5071388;28;20045;-49
2024/01/14 08:40:54;;;;;;;57.63;27.60;;;;;;;1.12;100.00;100985.09;5069494;28;20041;-48
2024/01/14 08:43:22;;;;;;;61.95;28.25;;;;;;;1.07;100.00;100979.16;5070031;28;20541;-51
2024/01/14 08:45:51;;;;;;;58.85;26.67;;;;;;;1.11;100.00;100979.97;5069264;28;20044;-50
2024/01/14 08:48:19;;;;;;;60.97;27.83;;;;;;;1.08;100.00;100973.09;5069073;28;20044;-50
2024/01/14 08:50:47;;;;;;;60.50;28.95;;;;;;;1.08;100.00;100975.69;5071288;28;20051;-49
2024/01/14 08:53:15;;;;;;;65.88;30.52;;;;;;;1.10;100.00;100971.31;5069387;28;20796;-52
2024/01/14 08:55:44;;;;;;;62.42;26.45;;;;;;;1.11;100.00;100967.84;5069297;28;20064;-53
2024/01/14 08:58:13;;;;;;;65.68;28.88;;;;;;;1.09;100.00;100959.28;5072096;28;20051;-50
2024/01/14 09:00:41;;;;;;;63.50;28.45;;;;;;;1.11;100.00;100954.91;5072307;28;20383;-49
2024/01/14 09:03:09;;;;;;;66.00;28.17;;;;;;;1.13;100.00;100958.31;5072369;28;20131;-49
2024/01/14 09:05:38;;;;;;;62.78;27.88;;;;;;;1.14;100.00;100949.63;5072698;28;20044;-51
2024/01/14 09:08:06;;;;;;;62.70;29.27;;;;;;;1.14;100.00;100951.38;5072468;28;20044;-51
2024/01/14 09:10:34;;;;;;;59.35;26.13;;;;;;;1.17;100.00;100954.75;5072334;28;20045;-50
2024/01/14 09:13:03;;;;;;;56.03;25.25;;;;;;;1.14;100.00;100948.78;5071644;28;20633;-50
2024/01/14 09:15:32;;;;;;;63.17;27.05;;;;;;;1.07;100.00;100955.84;5068692;28;20040;-49
2024/01/14 09:18:00;;;;;;;58.60;24.80;;;;;;;1.09;100.00;100948.03;5068172;28;20494;-48
2024/01/14 09:20:29;;;;;;;61.50;26.85;;;;;;;1.07;100.00;100948.09;5068417;28;20058;-48
2024/01/14 09:23:00;;;;;;;59.22;27.27;;;;;;;1.08;100.00;100944.63;5069126;28;20491;-48
2024/01/14 09:25:28;;;;;;;60.00;26.30;;;;;;;1.11;100.00;100944.53;5068671;28;20419;-50
2024/01/14 09:27:56;;;;;;;57.53;26.48;;;;;;;1.14;100.00;100941.84;5068409;28;20094;-53
2024/01/14 09:30:24;;;;;;;63.35;27.15;;;;;;;1.14;100.00;100941.00;5068560;28;20521;-49
2024/01/14 09:32:58;;;;;;;60.20;27.67;;;;;;;1.17;100.00;100935.75;5067891;28;20127;-49
2024/01/14 09:35:29;;;;;;;61.00;27.60;;;;;;;1.18;100.00;100938.31;5068403;28;20060;-50
2024/01/14 09:37:57;;;;;;;56.22;26.13;;;;;;;1.26;100.00;100930.34;5068800;28;20045;-51
2024/01/14 09:40:25;;;;;;;54.75;24.80;;;;;;;1.23;100.00;100927.84;5067505;28;20037;-49
2024/01/14 09:43:01;;;;;;;55.63;24.90;;;;;;;1.25;100.00;100932.97;5069653;28;20090;-49
2024/01/14 09:45:29;;;;;;;56.53;24.42;;;;;;;1.31;100.00;100935.41;5068193;28;20079;-51
2024/01/14 09:48:08;;;;;;;55.80;24.80;;;;;;;1.27;100.00;100926.00;5067237;28;20041;-52
2024/01/14 09:50:37;;;;;;;60.25;25.02;;;;;;;1.27;100.00;100933.78;5068212;28;20041;-50
2024/01/14 09:53:11;;;;;;;58.10;26.52;;;;;;;1.27;100.00;100931.19;5068756;28;20500;-49
2024/01/14 09:55:39;;;;;;;54.40;25.40;;;;;;;1.33;100.00;100936.22;5070263;28;20530;-52
2024/01/14 09:58:07;;;;;;;60.03;24.95;;;;;;;1.30;100.00;100934.56;5068837;28;20047;-52
2024/01/14 10:00:39;;;;;;;56.20;25.60;;;;;;;1.36;100.00;100938.75;5067937;28;20064;-50
2024/01/14 10:03:09;;;;;;;;;;;;;;;1.33;100.00;100939.66;5068227;28;20426;-50
2024/01/14 10:05:38;;;;;;;56.03;26.73;;;;;;;1.34;100.00;100925.81;5067317;28;20284;-51
2024/01/14 10:08:07;;;;;;;54.58;26.23;;;;;;;1.38;100.00;100939.56;5066606;28;20059;-50
2024/01/14 10:10:36;;;;;;;57.65;28.05;;;;;;;1.38;100.00;100929.19;5070274;28;20087;-52
2024/01/14 10:13:05;;;;;;;58.15;25.77;;;;;;;1.46;100.00;100931.56;5067991;28;20050;-54
2024/01/14 10:15:33;;;;;;;58.70;25.88;;;;;;;1.47;100.00;100922.91;5068866;28;20058;-54
2024/01/14 10:18:17;;;;;;;;;;;;;;;1.47;100.00;100922.91;5070713;28;20056;-51
2024/01/14 10:20:46;;;;;;;58.30;26.52;;;;;;;1.49;100.00;100921.16;5071428;28;20470;-50
2024/01/14 10:23:17;;;;;;;52.30;25.27;;;;;;;1.51;100.00;100915.03;5071578;28;20373;-49
2024/01/14 10:25:46;;;;;;;52.35;25.00;;;;;;;1.48;100.00;100909.06;5071719;28;20494;-47
2024/01/14 10:28:15;;;;;;;55.83;25.02;;;;;;;1.46;100.00;100910.84;5071220;28;20052;-46
2024/01/14 10:30:43;;;;;;;50.08;25.48;;;;;;;1.49;100.00;100898.66;5071483;28;20044;-47
2024/01/14 10:33:11;;;;;;;58.92;27.42;;;;;;;1.48;100.00;100899.53;5069155;28;20793;-46
2024/01/14 10:35:51;;;;;;;57.75;26.10;;;;;;;1.48;100.00;100893.50;5068534;28;20058;-46
2024/01/14 10:38:22;;;;;;;54.97;25.65;;;;;;;1.50;100.00;100902.09;5071359;28;20056;-46
2024/01/14 10:40:51;;;;;;;58.88;26.30;;;;;;;1.47;100.00;100887.50;5071689;28;20048;-47
2024/01/14 10:43:23;;;;;;;58.58;27.05;;;;;;;1.46;100.00;100883.19;5071536;28;20407;-48
2024/01/14 10:45:52;;;;;;;61.30;26.85;;;;;;;1.47;100.00;100879.72;5071451;28;20051;-48
2024/01/14 10:48:25;;;;;;;62.97;28.27;;;;;;;1.46;100.00;100880.59;5071138;28;20131;-48
2024/01/14 10:50:57;;;;;;;63.63;27.60;;;;;;;1.49;100.00;100871.91;5071386;28;20040;-48
2024/01/14 10:53:31;;;;;;;65.93;28.70;;;;;;;1.48;100.00;100865.84;5074506;28;20044;-47
2024/01/14 10:56:03;;;;;;;59.38;26.58;;;;;;;1.52;100.00;100864.88;5073807;28;20076;-46
2024/01/14 10:58:35;;;;;;;63.13;27.17;;;;;;;1.55;100.00;100869.13;5074881;28;20068;-47
2024/01/14 11:01:08;;;;;;;63.60;28.30;;;;;;;1.52;100.00;100854.50;5075019;28;20446;-45
2024/01/14 11:03:36;;;;;;;65.28;28.58;;;;;;;1.61;100.00;100857.72;5074835;28;20068;-50
2024/01/14 11:06:07;;;;;;;59.38;28.30;;;;;;;1.61;100.00;100848.22;5074715;28;20080;-47
2024/01/14 11:08:38;;;;;;;66.60;29.00;;;;;;;1.62;100.00;100844.75;5074993;28;20457;-48
2024/01/14 11:11:06;;;;;;;66.53;27.98;;;;;;;1.61;100.00;100843.03;5074671;28;20129;-49
2024/01/14 11:13:41;;;;;;;63.08;28.75;;;;;;;1.63;100.00;100840.41;5074494;28;20048;-46
2024/01/14 11:16:14;;;;;;;60.25;27.92;;;;;;;1.63;100.00;100835.22;5074735;28;20082;-47
2024/01/14 11:18:46;;;;;;;;;;;;;;;1.64;100.00;100831.75;5075093;28;20576;-49